sensor_id;sensor_type;location;lat;lon;timestamp;P1;durP1;ratioP1;P2;durP2;ratioP2
63534;SDS011;55128;50.230;18.944;2024-03-06T00:04:48;53.58;;;28.77;;
63534;SDS011;55128;50.230;18.944;2024-03-06T00:09:49;51.40;;;29.15;;
63534;SDS011;55128;50.230;18.944;2024-03-06T00:14:49;54.97;;;30.55;;
63534;SDS011;55128;50.230;18.944;2024-03-06T00:19:49;49.75;;;27.33;;
63534;SDS011;55128;50.230;18.944;2024-03-06T00:24:50;52.63;;;28.15;;
63534;SDS011;55128;50.230;18.944;2024-03-06T00:29:51;52.33;;;29.17;;
63534;SDS011;55128;50.230;18.944;2024-03-06T00:34:52;53.40;;;29.67;;
63534;SDS011;55128;50.230;18.944;2024-03-06T00:39:52;59.93;;;33.47;;
63534;SDS011;55128;50.230;18.944;2024-03-06T00:44:52;56.35;;;31.77;;
63534;SDS011;55128;50.230;18.944;2024-03-06T00:49:53;58.22;;;32.85;;
63534;SDS011;55128;50.230;18.944;2024-03-06T00:54:53;51.53;;;29.37;;
63534;SDS011;55128;50.230;18.944;2024-03-06T00:59:53;48.65;;;27.33;;
63534;SDS011;55128;50.230;18.944;2024-03-06T01:04:54;55.03;;;28.65;;
63534;SDS011;55128;50.230;18.944;2024-03-06T01:09:55;58.63;;;31.65;;
63534;SDS011;55128;50.230;18.944;2024-03-06T01:14:59;51.90;;;28.88;;
63534;SDS011;55128;50.230;18.944;2024-03-06T01:20:00;56.17;;;30.42;;
63534;SDS011;55128;50.230;18.944;2024-03-06T01:25:01;54.20;;;30.15;;
63534;SDS011;55128;50.230;18.944;2024-03-06T01:30:01;53.08;;;28.60;;
63534;SDS011;55128;50.230;18.944;2024-03-06T01:35:03;55.50;;;31.73;;
63534;SDS011;55128;50.230;18.944;2024-03-06T01:40:05;53.15;;;29.35;;
63534;SDS011;55128;50.230;18.944;2024-03-06T01:45:07;51.83;;;30.98;;
63534;SDS011;55128;50.230;18.944;2024-03-06T01:50:08;56.40;;;30.88;;
63534;SDS011;55128;50.230;18.944;2024-03-06T01:55:09;57.05;;;30.75;;
63534;SDS011;55128;50.230;18.944;2024-03-06T02:00:10;60.33;;;32.00;;
63534;SDS011;55128;50.230;18.944;2024-03-06T02:05:13;66.68;;;33.30;;
63534;SDS011;55128;50.230;18.944;2024-03-06T02:10:14;66.60;;;33.80;;
63534;SDS011;55128;50.230;18.944;2024-03-06T02:15:14;68.10;;;33.55;;
63534;SDS011;55128;50.230;18.944;2024-03-06T02:20:15;72.97;;;36.05;;
63534;SDS011;55128;50.230;18.944;2024-03-06T02:25:16;69.32;;;34.15;;
63534;SDS011;55128;50.230;18.944;2024-03-06T02:30:20;74.40;;;35.38;;
63534;SDS011;55128;50.230;18.944;2024-03-06T02:35:23;72.82;;;36.72;;
63534;SDS011;55128;50.230;18.944;2024-03-06T02:40:23;65.10;;;34.00;;
63534;SDS011;55128;50.230;18.944;2024-03-06T02:45:24;67.28;;;35.95;;
63534;SDS011;55128;50.230;18.944;2024-03-06T02:50:24;86.05;;;34.25;;
63534;SDS011;55128;50.230;18.944;2024-03-06T02:55:24;56.15;;;32.58;;
63534;SDS011;55128;50.230;18.944;2024-03-06T03:00:25;74.65;;;33.28;;
63534;SDS011;55128;50.230;18.944;2024-03-06T03:05:25;56.53;;;32.10;;
63534;SDS011;55128;50.230;18.944;2024-03-06T03:10:25;95.32;;;35.88;;
63534;SDS011;55128;50.230;18.944;2024-03-06T03:15:26;73.30;;;34.45;;
63534;SDS011;55128;50.230;18.944;2024-03-06T03:20:26;75.33;;;34.17;;
63534;SDS011;55128;50.230;18.944;2024-03-06T03:25:27;52.85;;;30.60;;
63534;SDS011;55128;50.230;18.944;2024-03-06T03:30:27;65.25;;;33.88;;
63534;SDS011;55128;50.230;18.944;2024-03-06T03:35:28;58.67;;;32.88;;
63534;SDS011;55128;50.230;18.944;2024-03-06T03:40:28;66.90;;;34.30;;
63534;SDS011;55128;50.230;18.944;2024-03-06T03:45:29;77.60;;;34.50;;
63534;SDS011;55128;50.230;18.944;2024-03-06T03:50:29;78.50;;;32.67;;
63534;SDS011;55128;50.230;18.944;2024-03-06T03:55:29;61.97;;;30.95;;
63534;SDS011;55128;50.230;18.944;2024-03-06T04:00:30;92.05;;;37.25;;
63534;SDS011;55128;50.230;18.944;2024-03-06T04:05:30;71.40;;;41.58;;
63534;SDS011;55128;50.230;18.944;2024-03-06T04:10:31;67.35;;;28.10;;
63534;SDS011;55128;50.230;18.944;2024-03-06T04:15:32;79.75;;;26.73;;
63534;SDS011;55128;50.230;18.944;2024-03-06T04:20:33;54.35;;;27.45;;
63534;SDS011;55128;50.230;18.944;2024-03-06T04:25:34;91.55;;;29.63;;
63534;SDS011;55128;50.230;18.944;2024-03-06T04:30:34;52.60;;;26.83;;
63534;SDS011;55128;50.230;18.944;2024-03-06T04:35:34;85.75;;;28.42;;
63534;SDS011;55128;50.230;18.944;2024-03-06T04:40:35;49.30;;;26.23;;
63534;SDS011;55128;50.230;18.944;2024-03-06T04:45:35;67.68;;;26.08;;
63534;SDS011;55128;50.230;18.944;2024-03-06T04:50:36;103.43;;;26.70;;
63534;SDS011;55128;50.230;18.944;2024-03-06T04:55:36;59.45;;;26.35;;
63534;SDS011;55128;50.230;18.944;2024-03-06T05:00:37;86.40;;;28.40;;
63534;SDS011;55128;50.230;18.944;2024-03-06T05:05:38;103.72;;;28.00;;
63534;SDS011;55128;50.230;18.944;2024-03-06T05:10:39;64.95;;;29.05;;
63534;SDS011;55128;50.230;18.944;2024-03-06T05:15:40;74.10;;;28.60;;
63534;SDS011;55128;50.230;18.944;2024-03-06T05:20:40;57.13;;;27.17;;
63534;SDS011;55128;50.230;18.944;2024-03-06T05:25:41;53.28;;;25.33;;
63534;SDS011;55128;50.230;18.944;2024-03-06T05:30:41;51.63;;;24.83;;
63534;SDS011;55128;50.230;18.944;2024-03-06T05:35:41;50.00;;;24.30;;
63534;SDS011;55128;50.230;18.944;2024-03-06T05:40:42;52.35;;;26.20;;
63534;SDS011;55128;50.230;18.944;2024-03-06T05:45:45;51.53;;;26.33;;
63534;SDS011;55128;50.230;18.944;2024-03-06T05:50:45;49.47;;;24.57;;
63534;SDS011;55128;50.230;18.944;2024-03-06T05:55:46;47.17;;;22.77;;
63534;SDS011;55128;50.230;18.944;2024-03-06T06:00:46;43.60;;;22.38;;
63534;SDS011;55128;50.230;18.944;2024-03-06T06:05:47;48.17;;;24.42;;
63534;SDS011;55128;50.230;18.944;2024-03-06T06:10:47;71.22;;;32.47;;
63534;SDS011;55128;50.230;18.944;2024-03-06T06:15:48;43.88;;;23.67;;
63534;SDS011;55128;50.230;18.944;2024-03-06T06:20:48;48.90;;;25.13;;
63534;SDS011;55128;50.230;18.944;2024-03-06T06:25:49;54.30;;;28.33;;
63534;SDS011;55128;50.230;18.944;2024-03-06T06:30:49;52.95;;;34.88;;
63534;SDS011;55128;50.230;18.944;2024-03-06T06:35:52;71.07;;;39.72;;
63534;SDS011;55128;50.230;18.944;2024-03-06T06:40:54;107.05;;;25.35;;
63534;SDS011;55128;50.230;18.944;2024-03-06T06:45:55;53.63;;;26.63;;
63534;SDS011;55128;50.230;18.944;2024-03-06T06:50:56;50.58;;;22.60;;
63534;SDS011;55128;50.230;18.944;2024-03-06T06:55:56;73.15;;;39.03;;
63534;SDS011;55128;50.230;18.944;2024-03-06T07:00:57;54.70;;;30.13;;
63534;SDS011;55128;50.230;18.944;2024-03-06T07:05:58;47.45;;;24.98;;
63534;SDS011;55128;50.230;18.944;2024-03-06T07:10:59;64.30;;;30.65;;
63534;SDS011;55128;50.230;18.944;2024-03-06T07:15:59;47.40;;;23.60;;
63534;SDS011;55128;50.230;18.944;2024-03-06T07:21:02;56.33;;;25.98;;
63534;SDS011;55128;50.230;18.944;2024-03-06T07:26:03;57.70;;;27.83;;
63534;SDS011;55128;50.230;18.944;2024-03-06T07:31:05;50.05;;;25.50;;
63534;SDS011;55128;50.230;18.944;2024-03-06T07:36:06;52.30;;;26.65;;
63534;SDS011;55128;50.230;18.944;2024-03-06T07:41:06;45.10;;;24.77;;
63534;SDS011;55128;50.230;18.944;2024-03-06T07:46:07;44.80;;;25.58;;
63534;SDS011;55128;50.230;18.944;2024-03-06T07:51:10;44.70;;;25.77;;
63534;SDS011;55128;50.230;18.944;2024-03-06T07:56:10;41.63;;;24.58;;
63534;SDS011;55128;50.230;18.944;2024-03-06T08:01:14;41.45;;;23.98;;
63534;SDS011;55128;50.230;18.944;2024-03-06T08:06:14;48.70;;;25.58;;
63534;SDS011;55128;50.230;18.944;2024-03-06T08:11:15;46.28;;;23.80;;
63534;SDS011;55128;50.230;18.944;2024-03-06T08:16:16;40.03;;;23.52;;
63534;SDS011;55128;50.230;18.944;2024-03-06T08:21:17;50.45;;;24.38;;
63534;SDS011;55128;50.230;18.944;2024-03-06T08:26:19;43.17;;;22.15;;
63534;SDS011;55128;50.230;18.944;2024-03-06T08:31:20;38.28;;;22.75;;
63534;SDS011;55128;50.230;18.944;2024-03-06T08:36:21;56.72;;;28.90;;
63534;SDS011;55128;50.230;18.944;2024-03-06T08:41:22;68.82;;;32.30;;
63534;SDS011;55128;50.230;18.944;2024-03-06T08:46:22;51.73;;;30.13;;
63534;SDS011;55128;50.230;18.944;2024-03-06T08:51:23;48.13;;;30.02;;
63534;SDS011;55128;50.230;18.944;2024-03-06T08:56:25;54.55;;;32.75;;
63534;SDS011;55128;50.230;18.944;2024-03-06T09:01:26;43.70;;;29.70;;
63534;SDS011;55128;50.230;18.944;2024-03-06T09:06:26;43.60;;;29.77;;
63534;SDS011;55128;50.230;18.944;2024-03-06T09:11:27;30.25;;;22.25;;
63534;SDS011;55128;50.230;18.944;2024-03-06T09:16:28;28.27;;;18.83;;
63534;SDS011;55128;50.230;18.944;2024-03-06T09:21:28;36.47;;;23.37;;
63534;SDS011;55128;50.230;18.944;2024-03-06T09:26:29;26.85;;;17.63;;
63534;SDS011;55128;50.230;18.944;2024-03-06T09:31:29;28.30;;;19.30;;
63534;SDS011;55128;50.230;18.944;2024-03-06T09:36:29;22.55;;;16.77;;
63534;SDS011;55128;50.230;18.944;2024-03-06T09:41:30;25.60;;;17.08;;
63534;SDS011;55128;50.230;18.944;2024-03-06T09:46:31;25.60;;;17.98;;
63534;SDS011;55128;50.230;18.944;2024-03-06T09:51:32;28.13;;;18.73;;
63534;SDS011;55128;50.230;18.944;2024-03-06T09:56:33;24.73;;;17.05;;
63534;SDS011;55128;50.230;18.944;2024-03-06T10:01:34;22.45;;;15.18;;
63534;SDS011;55128;50.230;18.944;2024-03-06T10:06:40;22.02;;;14.63;;
63534;SDS011;55128;50.230;18.944;2024-03-06T10:11:42;22.90;;;16.17;;
63534;SDS011;55128;50.230;18.944;2024-03-06T10:16:53;20.98;;;14.23;;
63534;SDS011;55128;50.230;18.944;2024-03-06T10:21:57;22.95;;;14.70;;
63534;SDS011;55128;50.230;18.944;2024-03-06T10:26:58;24.10;;;15.45;;
63534;SDS011;55128;50.230;18.944;2024-03-06T10:31:59;23.58;;;15.52;;
63534;SDS011;55128;50.230;18.944;2024-03-06T10:37:03;25.92;;;16.92;;
63534;SDS011;55128;50.230;18.944;2024-03-06T10:42:04;20.30;;;14.63;;
63534;SDS011;55128;50.230;18.944;2024-03-06T10:47:09;27.83;;;14.65;;
63534;SDS011;55128;50.230;18.944;2024-03-06T10:52:10;22.25;;;15.18;;
63534;SDS011;55128;50.230;18.944;2024-03-06T10:57:11;22.85;;;16.52;;
63534;SDS011;55128;50.230;18.944;2024-03-06T11:02:13;24.50;;;16.92;;
63534;SDS011;55128;50.230;18.944;2024-03-06T11:07:15;23.90;;;16.55;;
63534;SDS011;55128;50.230;18.944;2024-03-06T11:17:35;26.30;;;17.08;;
63534;SDS011;55128;50.230;18.944;2024-03-06T11:28:04;28.33;;;17.92;;
63534;SDS011;55128;50.230;18.944;2024-03-06T11:33:05;26.40;;;17.58;;
63534;SDS011;55128;50.230;18.944;2024-03-06T11:38:08;28.52;;;19.08;;
63534;SDS011;55128;50.230;18.944;2024-03-06T11:43:24;31.27;;;20.05;;
63534;SDS011;55128;50.230;18.944;2024-03-06T11:48:26;36.60;;;20.52;;
63534;SDS011;55128;50.230;18.944;2024-03-06T11:53:28;32.58;;;21.30;;
63534;SDS011;55128;50.230;18.944;2024-03-06T11:58:30;31.08;;;20.25;;
63534;SDS011;55128;50.230;18.944;2024-03-06T12:03:30;32.88;;;21.85;;
63534;SDS011;55128;50.230;18.944;2024-03-06T12:08:30;30.30;;;20.85;;
63534;SDS011;55128;50.230;18.944;2024-03-06T12:13:31;39.50;;;22.73;;
63534;SDS011;55128;50.230;18.944;2024-03-06T12:18:32;36.92;;;23.02;;
63534;SDS011;55128;50.230;18.944;2024-03-06T12:23:33;33.33;;;23.00;;
63534;SDS011;55128;50.230;18.944;2024-03-06T12:28:34;32.50;;;20.63;;
63534;SDS011;55128;50.230;18.944;2024-03-06T12:33:35;30.55;;;20.13;;
63534;SDS011;55128;50.230;18.944;2024-03-06T12:38:36;30.38;;;19.05;;
63534;SDS011;55128;50.230;18.944;2024-03-06T12:43:37;27.13;;;18.92;;
63534;SDS011;55128;50.230;18.944;2024-03-06T12:48:37;23.88;;;15.75;;
63534;SDS011;55128;50.230;18.944;2024-03-06T12:53:37;21.05;;;14.27;;
63534;SDS011;55128;50.230;18.944;2024-03-06T12:58:38;21.17;;;14.82;;
63534;SDS011;55128;50.230;18.944;2024-03-06T13:03:38;21.20;;;15.03;;
63534;SDS011;55128;50.230;18.944;2024-03-06T13:08:39;29.80;;;17.27;;
63534;SDS011;55128;50.230;18.944;2024-03-06T13:13:39;28.33;;;18.23;;
63534;SDS011;55128;50.230;18.944;2024-03-06T13:18:39;26.37;;;17.87;;
63534;SDS011;55128;50.230;18.944;2024-03-06T13:23:40;26.70;;;17.70;;
63534;SDS011;55128;50.230;18.944;2024-03-06T13:28:40;30.63;;;18.45;;
63534;SDS011;55128;50.230;18.944;2024-03-06T13:33:41;28.48;;;18.65;;
63534;SDS011;55128;50.230;18.944;2024-03-06T13:38:41;27.52;;;19.85;;
63534;SDS011;55128;50.230;18.944;2024-03-06T13:43:42;30.75;;;20.73;;
63534;SDS011;55128;50.230;18.944;2024-03-06T13:48:42;29.08;;;20.58;;
63534;SDS011;55128;50.230;18.944;2024-03-06T13:53:42;33.33;;;21.43;;
63534;SDS011;55128;50.230;18.944;2024-03-06T13:58:43;33.08;;;20.85;;
63534;SDS011;55128;50.230;18.944;2024-03-06T14:03:43;32.80;;;21.85;;
63534;SDS011;55128;50.230;18.944;2024-03-06T14:08:44;33.90;;;21.75;;
63534;SDS011;55128;50.230;18.944;2024-03-06T14:13:44;31.95;;;20.90;;
63534;SDS011;55128;50.230;18.944;2024-03-06T14:18:44;31.48;;;21.17;;
63534;SDS011;55128;50.230;18.944;2024-03-06T14:23:45;28.83;;;21.33;;
63534;SDS011;55128;50.230;18.944;2024-03-06T14:28:45;31.05;;;21.58;;
63534;SDS011;55128;50.230;18.944;2024-03-06T14:33:45;35.85;;;22.88;;
63534;SDS011;55128;50.230;18.944;2024-03-06T14:38:46;36.30;;;24.10;;
63534;SDS011;55128;50.230;18.944;2024-03-06T14:43:46;43.45;;;26.55;;
63534;SDS011;55128;50.230;18.944;2024-03-06T14:48:47;42.15;;;26.67;;
63534;SDS011;55128;50.230;18.944;2024-03-06T14:53:47;44.10;;;26.83;;
63534;SDS011;55128;50.230;18.944;2024-03-06T14:58:48;44.97;;;27.58;;
63534;SDS011;55128;50.230;18.944;2024-03-06T15:03:48;44.17;;;26.27;;
63534;SDS011;55128;50.230;18.944;2024-03-06T15:08:48;49.43;;;28.27;;
63534;SDS011;55128;50.230;18.944;2024-03-06T15:13:49;52.42;;;28.95;;
63534;SDS011;55128;50.230;18.944;2024-03-06T15:18:50;48.03;;;28.33;;
63534;SDS011;55128;50.230;18.944;2024-03-06T15:23:52;57.20;;;30.77;;
63534;SDS011;55128;50.230;18.944;2024-03-06T15:28:54;58.22;;;30.58;;
63534;SDS011;55128;50.230;18.944;2024-03-06T15:33:54;59.55;;;31.92;;
63534;SDS011;55128;50.230;18.944;2024-03-06T15:38:54;56.10;;;32.13;;
63534;SDS011;55128;50.230;18.944;2024-03-06T15:43:57;60.88;;;31.55;;
63534;SDS011;55128;50.230;18.944;2024-03-06T15:48:57;47.65;;;27.02;;
63534;SDS011;55128;50.230;18.944;2024-03-06T15:53:58;56.17;;;31.23;;
63534;SDS011;55128;50.230;18.944;2024-03-06T15:58:58;48.35;;;27.08;;
63534;SDS011;55128;50.230;18.944;2024-03-06T16:03:59;46.35;;;29.25;;
63534;SDS011;55128;50.230;18.944;2024-03-06T16:08:59;46.03;;;26.30;;
63534;SDS011;55128;50.230;18.944;2024-03-06T16:14:00;43.22;;;26.80;;
63534;SDS011;55128;50.230;18.944;2024-03-06T16:19:01;41.92;;;25.60;;
63534;SDS011;55128;50.230;18.944;2024-03-06T16:24:01;44.88;;;26.55;;
63534;SDS011;55128;50.230;18.944;2024-03-06T16:29:03;42.10;;;26.70;;
63534;SDS011;55128;50.230;18.944;2024-03-06T16:34:04;45.47;;;28.05;;
63534;SDS011;55128;50.230;18.944;2024-03-06T16:39:05;47.58;;;29.15;;
63534;SDS011;55128;50.230;18.944;2024-03-06T16:44:05;44.63;;;29.55;;
63534;SDS011;55128;50.230;18.944;2024-03-06T16:49:07;44.60;;;29.15;;
63534;SDS011;55128;50.230;18.944;2024-03-06T16:54:08;48.90;;;29.77;;
63534;SDS011;55128;50.230;18.944;2024-03-06T16:59:09;45.45;;;30.13;;
63534;SDS011;55128;50.230;18.944;2024-03-06T17:04:09;51.33;;;30.55;;
63534;SDS011;55128;50.230;18.944;2024-03-06T17:09:10;49.40;;;29.55;;
63534;SDS011;55128;50.230;18.944;2024-03-06T17:14:11;53.60;;;31.45;;
63534;SDS011;55128;50.230;18.944;2024-03-06T17:19:11;50.38;;;30.75;;
63534;SDS011;55128;50.230;18.944;2024-03-06T17:24:12;50.33;;;30.93;;
63534;SDS011;55128;50.230;18.944;2024-03-06T17:29:12;47.78;;;29.98;;
63534;SDS011;55128;50.230;18.944;2024-03-06T17:34:13;52.15;;;29.40;;
63534;SDS011;55128;50.230;18.944;2024-03-06T17:39:14;53.85;;;30.08;;
63534;SDS011;55128;50.230;18.944;2024-03-06T17:44:15;51.13;;;30.13;;
63534;SDS011;55128;50.230;18.944;2024-03-06T17:49:15;49.95;;;29.45;;
63534;SDS011;55128;50.230;18.944;2024-03-06T17:54:16;55.90;;;31.55;;
63534;SDS011;55128;50.230;18.944;2024-03-06T17:59:17;60.08;;;35.53;;
63534;SDS011;55128;50.230;18.944;2024-03-06T18:04:17;56.95;;;31.50;;
63534;SDS011;55128;50.230;18.944;2024-03-06T18:09:18;68.93;;;52.22;;
63534;SDS011;55128;50.230;18.944;2024-03-06T18:14:19;57.38;;;33.55;;
63534;SDS011;55128;50.230;18.944;2024-03-06T18:19:20;60.28;;;34.85;;
63534;SDS011;55128;50.230;18.944;2024-03-06T18:24:20;50.65;;;30.88;;
63534;SDS011;55128;50.230;18.944;2024-03-06T18:29:21;55.40;;;34.55;;
63534;SDS011;55128;50.230;18.944;2024-03-06T18:34:21;53.42;;;32.72;;
63534;SDS011;55128;50.230;18.944;2024-03-06T18:39:21;43.53;;;26.90;;
63534;SDS011;55128;50.230;18.944;2024-03-06T18:44:22;54.97;;;32.80;;
63534;SDS011;55128;50.230;18.944;2024-03-06T18:49:22;52.55;;;32.22;;
63534;SDS011;55128;50.230;18.944;2024-03-06T18:54:23;63.90;;;38.92;;
63534;SDS011;55128;50.230;18.944;2024-03-06T18:59:24;46.97;;;29.67;;
63534;SDS011;55128;50.230;18.944;2024-03-06T19:04:24;43.03;;;26.65;;
63534;SDS011;55128;50.230;18.944;2024-03-06T19:09:25;39.63;;;23.70;;
63534;SDS011;55128;50.230;18.944;2024-03-06T19:14:26;38.50;;;22.60;;
63534;SDS011;55128;50.230;18.944;2024-03-06T19:19:28;47.17;;;26.92;;
63534;SDS011;55128;50.230;18.944;2024-03-06T19:24:28;49.90;;;26.65;;
63534;SDS011;55128;50.230;18.944;2024-03-06T19:29:28;47.28;;;26.00;;
63534;SDS011;55128;50.230;18.944;2024-03-06T19:34:30;37.92;;;24.25;;
63534;SDS011;55128;50.230;18.944;2024-03-06T19:39:31;38.80;;;23.67;;
63534;SDS011;55128;50.230;18.944;2024-03-06T19:44:31;32.83;;;20.70;;
63534;SDS011;55128;50.230;18.944;2024-03-06T19:49:32;36.05;;;21.92;;
63534;SDS011;55128;50.230;18.944;2024-03-06T19:54:33;34.53;;;21.30;;
63534;SDS011;55128;50.230;18.944;2024-03-06T19:59:36;36.97;;;22.40;;
63534;SDS011;55128;50.230;18.944;2024-03-06T20:04:36;35.58;;;21.67;;
63534;SDS011;55128;50.230;18.944;2024-03-06T20:09:37;38.13;;;23.63;;
63534;SDS011;55128;50.230;18.944;2024-03-06T20:14:37;43.25;;;32.97;;
63534;SDS011;55128;50.230;18.944;2024-03-06T20:19:38;44.37;;;33.60;;
63534;SDS011;55128;50.230;18.944;2024-03-06T20:24:38;40.88;;;26.10;;
63534;SDS011;55128;50.230;18.944;2024-03-06T20:29:41;35.40;;;24.17;;
63534;SDS011;55128;50.230;18.944;2024-03-06T20:34:42;32.20;;;18.92;;
63534;SDS011;55128;50.230;18.944;2024-03-06T20:39:42;28.63;;;18.23;;
63534;SDS011;55128;50.230;18.944;2024-03-06T20:44:42;30.60;;;20.75;;
63534;SDS011;55128;50.230;18.944;2024-03-06T20:49:43;16.70;;;12.57;;
63534;SDS011;55128;50.230;18.944;2024-03-06T20:54:43;18.35;;;13.98;;
63534;SDS011;55128;50.230;18.944;2024-03-06T20:59:44;20.58;;;14.65;;
63534;SDS011;55128;50.230;18.944;2024-03-06T21:04:46;22.73;;;15.40;;
63534;SDS011;55128;50.230;18.944;2024-03-06T21:09:46;20.67;;;13.73;;
63534;SDS011;55128;50.230;18.944;2024-03-06T21:14:46;21.30;;;14.57;;
63534;SDS011;55128;50.230;18.944;2024-03-06T21:19:47;24.25;;;15.90;;
63534;SDS011;55128;50.230;18.944;2024-03-06T21:24:47;20.58;;;12.90;;
63534;SDS011;55128;50.230;18.944;2024-03-06T21:29:48;20.73;;;15.75;;
63534;SDS011;55128;50.230;18.944;2024-03-06T21:34:48;23.60;;;14.77;;
63534;SDS011;55128;50.230;18.944;2024-03-06T21:39:49;20.80;;;12.95;;
63534;SDS011;55128;50.230;18.944;2024-03-06T21:44:49;20.55;;;14.25;;
63534;SDS011;55128;50.230;18.944;2024-03-06T21:49:50;25.05;;;17.45;;
63534;SDS011;55128;50.230;18.944;2024-03-06T21:54:51;21.08;;;14.98;;
63534;SDS011;55128;50.230;18.944;2024-03-06T21:59:51;23.25;;;16.23;;
63534;SDS011;55128;50.230;18.944;2024-03-06T22:04:52;22.77;;;15.60;;
63534;SDS011;55128;50.230;18.944;2024-03-06T22:09:53;23.92;;;15.95;;
63534;SDS011;55128;50.230;18.944;2024-03-06T22:14:53;31.90;;;23.55;;
63534;SDS011;55128;50.230;18.944;2024-03-06T22:19:56;25.35;;;16.67;;
63534;SDS011;55128;50.230;18.944;2024-03-06T22:24:57;28.10;;;17.33;;
63534;SDS011;55128;50.230;18.944;2024-03-06T22:29:57;22.63;;;14.63;;
63534;SDS011;55128;50.230;18.944;2024-03-06T22:34:58;34.22;;;21.88;;
63534;SDS011;55128;50.230;18.944;2024-03-06T22:39:59;28.55;;;20.70;;
63534;SDS011;55128;50.230;18.944;2024-03-06T22:44:59;32.43;;;19.50;;
63534;SDS011;55128;50.230;18.944;2024-03-06T22:50:00;32.53;;;21.17;;
63534;SDS011;55128;50.230;18.944;2024-03-06T22:55:00;29.08;;;16.75;;
63534;SDS011;55128;50.230;18.944;2024-03-06T23:00:01;24.63;;;15.25;;
63534;SDS011;55128;50.230;18.944;2024-03-06T23:05:06;29.35;;;18.75;;
63534;SDS011;55128;50.230;18.944;2024-03-06T23:10:06;28.80;;;16.73;;
63534;SDS011;55128;50.230;18.944;2024-03-06T23:15:07;34.78;;;23.38;;
63534;SDS011;55128;50.230;18.944;2024-03-06T23:20:08;30.38;;;19.42;;
63534;SDS011;55128;50.230;18.944;2024-03-06T23:25:10;30.23;;;17.40;;
63534;SDS011;55128;50.230;18.944;2024-03-06T23:30:12;28.30;;;17.63;;
63534;SDS011;55128;50.230;18.944;2024-03-06T23:35:13;66.88;;;34.92;;
63534;SDS011;55128;50.230;18.944;2024-03-06T23:40:14;159.05;;;67.00;;
63534;SDS011;55128;50.230;18.944;2024-03-06T23:45:15;167.85;;;131.75;;
63534;SDS011;55128;50.230;18.944;2024-03-06T23:50:16;29.80;;;17.45;;
63534;SDS011;55128;50.230;18.944;2024-03-06T23:55:20;34.30;;;17.70;;
